Time;durP1;ratioP1;P1;durP2;ratioP2;P2;SDS_P1;SDS_P2;PMS_P1;PMS_P2;Temp;Humidity;BMP_temperature;BMP_pressure;BME280_temperature;BME280_humidity;BME280_pressure;Samples;Min_cycle;Max_cycle;Signal;HPM_P1;HPM_P2
2024/01/28 00:01:58;;;;;;;38.22;16.23;;;2.90;99.90;;;;;;4938300;29;20023;-75
2024/01/28 00:04:23;;;;;;;39.97;15.25;;;2.90;99.90;;;;;;4955651;28;20392;-74
2024/01/28 00:06:49;;;;;;;50.60;16.58;;;2.90;99.90;;;;;;4938757;28;20024;-75
2024/01/28 00:09:14;;;;;;;35.45;15.02;;;2.80;99.90;;;;;;4955983;29;20051;-74
2024/01/28 00:11:42;;;;;;;41.08;15.70;;;2.80;99.90;;;;;;4955807;28;20019;-73
2024/01/28 00:14:08;;;;;;;38.75;15.45;;;2.80;99.90;;;;;;4938686;29;20582;-74
2024/01/28 00:16:34;;;;;;;43.17;15.95;;;2.70;99.90;;;;;;4955551;28;20040;-74
2024/01/28 00:19:00;;;;;;;48.53;15.88;;;2.70;99.90;;;;;;4955319;29;20024;-74
2024/01/28 00:21:26;;;;;;;41.00;15.35;;;2.60;99.90;;;;;;4938520;29;20016;-74
2024/01/28 00:23:51;;;;;;;38.85;15.05;;;2.60;99.90;;;;;;4938258;29;20032;-74
2024/01/28 00:26:17;;;;;;;36.58;15.07;;;2.60;99.90;;;;;;4938224;29;20495;-73
2024/01/28 00:28:42;;;;;;;48.50;15.88;;;2.60;99.90;;;;;;4936739;29;20023;-74
2024/01/28 00:31:12;;;;;;;38.05;15.18;;;2.60;99.90;;;;;;4938368;29;20042;-74
2024/01/28 00:33:38;;;;;;;45.97;15.38;;;2.60;99.90;;;;;;4955127;28;20030;-74
2024/01/28 00:36:04;;;;;;;43.35;15.48;;;2.70;99.90;;;;;;4955446;28;20087;-74
2024/01/28 00:38:31;;;;;;;44.42;15.60;;;2.60;99.90;;;;;;4938080;28;20027;-75
2024/01/28 00:41:00;;;;;;;43.75;15.75;;;2.60;99.90;;;;;;4935789;29;20031;-75
2024/01/28 00:43:26;;;;;;;48.38;16.08;;;2.50;99.90;;;;;;4955329;28;20130;-74
2024/01/28 00:45:52;;;;;;;48.45;14.57;;;2.50;99.90;;;;;;4938105;29;20031;-74
2024/01/28 00:48:18;;;;;;;45.55;16.20;;;2.50;99.90;;;;;;4937279;29;20035;-74
2024/01/28 00:50:43;;;;;;;35.42;14.15;;;2.50;99.90;;;;;;4955387;28;20083;-74
2024/01/28 00:53:09;;;;;;;40.58;14.52;;;2.50;99.90;;;;;;4938009;28;20034;-74
2024/01/28 00:55:34;;;;;;;44.88;14.93;;;2.50;99.90;;;;;;4954478;28;20035;-76
2024/01/28 00:58:02;;;;;;;48.10;14.38;;;2.50;99.90;;;;;;4955135;28;20117;-73
2024/01/28 01:00:28;;;;;;;39.25;15.30;;;2.60;99.90;;;;;;4936091;28;20039;-73
2024/01/28 01:02:53;;;;;;;50.70;15.27;;;2.50;99.90;;;;;;4937688;29;20041;-74
2024/01/28 01:05:19;;;;;;;35.88;13.95;;;2.50;99.90;;;;;;4937302;29;20461;-74
2024/01/28 01:07:44;;;;;;;39.78;14.23;;;2.40;99.90;;;;;;4936759;28;20051;-75
2024/01/28 01:10:10;;;;;;;41.65;14.27;;;2.40;99.90;;;;;;4954504;28;20177;-74
2024/01/28 01:12:36;;;;;;;33.90;13.75;;;2.30;99.90;;;;;;4954795;28;20038;-74
2024/01/28 01:15:03;;;;;;;32.30;14.27;;;2.30;99.90;;;;;;4953884;29;20043;-74
2024/01/28 01:17:29;;;;;;;39.10;14.88;;;2.30;99.90;;;;;;4937125;29;20392;-74
2024/01/28 01:19:54;;;;;;;32.72;14.68;;;2.20;99.90;;;;;;4954655;28;20103;-74
2024/01/28 01:22:20;;;;;;;44.25;17.80;;;2.30;99.90;;;;;;4954674;29;20031;-74
2024/01/28 01:24:45;;;;;;;44.70;17.67;;;2.30;99.90;;;;;;4954853;28;20027;-74
2024/01/28 01:27:11;;;;;;;40.53;16.20;;;2.20;99.90;;;;;;4954741;28;20027;-74
2024/01/28 01:29:37;;;;;;;38.45;16.35;;;2.20;99.90;;;;;;4937273;28;20035;-75
2024/01/28 01:32:02;;;;;;;38.22;14.88;;;2.20;99.90;;;;;;4955100;28;20047;-73
2024/01/28 01:34:28;;;;;;;38.75;14.52;;;2.20;99.90;;;;;;4937403;29;20028;-75
2024/01/28 01:36:54;;;;;;;34.67;15.10;;;2.30;99.90;;;;;;4954302;28;20035;-74
2024/01/28 01:39:19;;;;;;;41.55;15.27;;;2.20;99.90;;;;;;4936928;29;20034;-74
2024/01/28 01:41:45;;;;;;;39.55;14.70;;;2.20;99.90;;;;;;4936932;29;20078;-75
2024/01/28 01:44:11;;;;;;;39.83;14.15;;;2.20;99.90;;;;;;4953716;28;20043;-74
2024/01/28 01:46:38;;;;;;;40.20;14.02;;;2.30;99.90;;;;;;4952689;28;20031;-74
2024/01/28 01:49:04;;;;;;;39.38;15.10;;;2.30;99.90;;;;;;4953731;28;20024;-74
2024/01/28 01:51:30;;;;;;;41.25;15.13;;;2.30;99.90;;;;;;4937408;29;20032;-74
2024/01/28 01:53:56;;;;;;;44.00;15.82;;;2.30;99.90;;;;;;4954197;28;20074;-74
2024/01/28 01:56:23;;;;;;;46.03;17.25;;;2.20;99.90;;;;;;4936948;29;20042;-75
2024/01/28 01:58:49;;;;;;;45.92;17.60;;;2.20;99.90;;;;;;4937091;29;20030;-74
2024/01/28 02:01:16;;;;;;;46.55;17.45;;;2.20;99.90;;;;;;4953987;28;20027;-76
2024/01/28 02:03:42;;;;;;;42.72;16.70;;;2.20;99.90;;;;;;4943760;29;20083;-74
2024/01/28 02:06:10;;;;;;;44.38;16.92;;;2.20;99.90;;;;;;4936788;29;20069;-73
2024/01/28 02:08:36;;;;;;;48.28;17.65;;;2.20;99.90;;;;;;4952861;28;20232;-74
2024/01/28 02:11:04;;;;;;;45.97;17.70;;;2.20;99.90;;;;;;4953500;28;20507;-73
2024/01/28 02:13:30;;;;;;;42.28;17.00;;;2.20;99.90;;;;;;4953700;28;20120;-74
2024/01/28 02:15:56;;;;;;;44.63;16.77;;;2.20;99.90;;;;;;4953206;28;20049;-74
2024/01/28 02:18:21;;;;;;;48.00;14.93;;;2.20;99.90;;;;;;4953688;28;20023;-74
2024/01/28 02:20:47;;;;;;;44.72;16.30;;;2.20;99.90;;;;;;4954008;29;20024;-74
2024/01/28 02:23:19;;;;;;;44.63;15.15;;;2.10;99.90;;;;;;4936942;29;20066;-74
2024/01/28 02:25:44;;;;;;;48.90;16.20;;;2.10;99.90;;;;;;4952297;28;20031;-73
2024/01/28 02:28:10;;;;;;;55.22;15.63;;;2.10;99.90;;;;;;4936641;29;20031;-74
2024/01/28 02:30:35;;;;;;;45.28;16.25;;;2.10;99.90;;;;;;4953157;29;20034;-74
2024/01/28 02:33:02;;;;;;;42.72;15.35;;;2.10;99.90;;;;;;4953955;28;20080;-74
2024/01/28 02:35:27;;;;;;;43.83;15.27;;;2.10;99.90;;;;;;4935858;28;20090;-75
2024/01/28 02:37:53;;;;;;;39.55;16.73;;;2.10;99.90;;;;;;4936294;29;20027;-74
2024/01/28 02:40:19;;;;;;;45.38;16.38;;;2.00;99.90;;;;;;4936241;29;20020;-76
2024/01/28 02:42:44;;;;;;;45.00;16.42;;;2.00;99.90;;;;;;4954252;28;20019;-75
2024/01/28 02:45:10;;;;;;;43.45;16.23;;;2.00;99.90;;;;;;4954687;28;20035;-75
2024/01/28 02:47:35;;;;;;;44.88;16.13;;;2.00;99.90;;;;;;4936337;29;20511;-74
2024/01/28 02:50:01;;;;;;;39.95;16.20;;;2.00;99.90;;;;;;4952969;28;20027;-74
2024/01/28 02:52:27;;;;;;;40.42;16.00;;;2.00;99.90;;;;;;4952457;28;20069;-75
2024/01/28 02:54:52;;;;;;;41.55;15.25;;;2.00;99.90;;;;;;4954625;28;20039;-74
2024/01/28 02:57:18;;;;;;;40.25;15.68;;;2.00;99.90;;;;;;4936315;29;20038;-74
2024/01/28 02:59:43;;;;;;;46.42;16.35;;;1.90;99.90;;;;;;4942991;29;20039;-74
2024/01/28 03:02:10;;;;;;;43.58;16.00;;;1.90;99.90;;;;;;4954030;29;20034;-74
2024/01/28 03:04:36;;;;;;;39.72;15.70;;;1.90;99.90;;;;;;4952961;28;20032;-74
2024/01/28 03:07:03;;;;;;;39.67;15.93;;;1.80;99.90;;;;;;4952452;28;20032;-74
2024/01/28 03:09:28;;;;;;;41.22;16.27;;;1.80;99.90;;;;;;4936005;29;20523;-73
2024/01/28 03:11:54;;;;;;;43.20;15.43;;;1.80;99.90;;;;;;4935884;29;20031;-73
2024/01/28 03:14:19;;;;;;;43.67;16.17;;;1.80;99.90;;;;;;4953392;29;20043;-74
2024/01/28 03:16:46;;;;;;;47.03;15.80;;;1.80;99.90;;;;;;4953318;28;20113;-74
2024/01/28 03:19:12;;;;;;;45.95;16.65;;;1.80;99.90;;;;;;4952371;28;20031;-75
2024/01/28 03:21:37;;;;;;;50.53;17.58;;;1.80;99.90;;;;;;4936244;28;20024;-75
2024/01/28 03:24:03;;;;;;;40.03;16.38;;;1.70;99.90;;;;;;4936340;29;20435;-74
2024/01/28 03:26:29;;;;;;;41.45;16.40;;;1.70;99.90;;;;;;4953603;28;20050;-73
2024/01/28 03:28:55;;;;;;;48.35;16.10;;;1.70;99.90;;;;;;4955890;28;20024;-73
2024/01/28 03:31:21;;;;;;;46.22;17.98;;;1.70;99.90;;;;;;4956662;29;20036;-74
2024/01/28 03:33:46;;;;;;;53.08;18.50;;;1.60;99.90;;;;;;4939522;28;20038;-74
2024/01/28 03:36:12;;;;;;;49.53;17.60;;;1.50;99.90;;;;;;4956763;28;20035;-74
2024/01/28 03:38:39;;;;;;;54.65;17.80;;;1.60;99.90;;;;;;4956420;29;20063;-74
2024/01/28 03:41:05;;;;;;;43.83;18.33;;;1.50;99.90;;;;;;4956773;28;20045;-73
2024/01/28 03:43:30;;;;;;;51.47;19.15;;;1.50;99.90;;;;;;4956853;28;20035;-75
2024/01/28 03:45:56;;;;;;;51.03;19.13;;;1.50;99.90;;;;;;4956326;28;20045;-74
2024/01/28 03:48:21;;;;;;;55.45;19.67;;;1.50;99.90;;;;;;4956289;28;20047;-74
2024/01/28 03:50:47;;;;;;;51.47;19.00;;;1.40;99.90;;;;;;4956619;29;20019;-74
2024/01/28 03:53:12;;;;;;;51.47;19.52;;;1.50;99.90;;;;;;4956024;29;20059;-76
2024/01/28 03:55:38;;;;;;;45.67;19.77;;;1.50;99.90;;;;;;4938956;28;20043;-74
2024/01/28 03:58:04;;;;;;;55.33;20.33;;;1.40;99.90;;;;;;4939690;29;20038;-74
2024/01/28 04:00:29;;;;;;;53.97;19.92;;;1.40;99.90;;;;;;4955958;28;20043;-74
2024/01/28 04:03:00;;;;;;;48.75;20.75;;;1.40;99.90;;;;;;4939253;29;20023;-75
2024/01/28 04:05:26;;;;;;;51.88;20.42;;;1.40;99.90;;;;;;4956097;28;20173;-73
2024/01/28 04:07:52;;;;;;;51.30;20.25;;;1.40;99.90;;;;;;4955312;28;20489;-74
2024/01/28 04:10:18;;;;;;;52.35;20.35;;;1.40;99.90;;;;;;4955932;29;20020;-74
2024/01/28 04:12:44;;;;;;;46.65;20.38;;;1.30;99.90;;;;;;4938677;29;20050;-76
2024/01/28 04:15:10;;;;;;;47.75;20.40;;;1.30;99.90;;;;;;4955816;28;20095;-73
2024/01/28 04:17:35;;;;;;;53.38;21.13;;;1.30;99.90;;;;;;4955889;28;20051;-75
2024/01/28 04:20:03;;;;;;;51.80;21.52;;;1.30;99.90;;;;;;4937996;28;20061;-75
2024/01/28 04:22:30;;;;;;;47.58;21.30;;;1.20;99.90;;;;;;4938096;29;20079;-74
2024/01/28 04:24:55;;;;;;;55.38;21.30;;;1.30;99.90;;;;;;4938559;29;20054;-74
2024/01/28 04:27:21;;;;;;;58.70;23.02;;;1.30;99.90;;;;;;4938303;28;20027;-74
2024/01/28 04:29:46;;;;;;;48.40;21.65;;;1.30;99.90;;;;;;4938268;29;20031;-74
2024/01/28 04:32:14;;;;;;;51.78;22.52;;;1.30;99.90;;;;;;4938404;29;20046;-75
2024/01/28 04:34:40;;;;;;;60.55;22.55;;;1.30;99.90;;;;;;4938948;29;21201;-74
2024/01/28 04:37:06;;;;;;;56.42;21.58;;;1.30;99.90;;;;;;4939002;29;20027;-74
2024/01/28 04:39:34;;;;;;;62.25;23.55;;;1.30;99.90;;;;;;4955128;28;20031;-74
2024/01/28 04:42:00;;;;;;;50.85;22.50;;;1.30;99.90;;;;;;4938732;28;20032;-74
2024/01/28 04:44:26;;;;;;;59.08;22.75;;;1.20;99.90;;;;;;4955287;28;20070;-73
2024/01/28 04:46:52;;;;;;;66.15;23.40;;;1.20;99.90;;;;;;4956257;28;20042;-73
2024/01/28 04:49:18;;;;;;;56.30;23.15;;;1.20;99.90;;;;;;4955416;28;20032;-74
2024/01/28 04:51:43;;;;;;;55.55;24.20;;;1.20;99.90;;;;;;4955646;28;20058;-74
2024/01/28 04:54:09;;;;;;;59.05;22.42;;;1.20;99.90;;;;;;4955806;28;20083;-73
2024/01/28 04:56:35;;;;;;;53.80;23.40;;;1.20;99.90;;;;;;4955257;28;20054;-74
2024/01/28 04:59:03;;;;;;;55.83;22.45;;;1.20;99.90;;;;;;4938042;28;20024;-73
2024/01/28 05:01:28;;;;;;;45.60;21.88;;;1.20;99.90;;;;;;4953641;29;20031;-74
2024/01/28 05:03:54;;;;;;;47.47;22.80;;;1.20;99.90;;;;;;4937677;28;20112;-74
2024/01/28 05:06:19;;;;;;;55.83;21.45;;;1.10;99.90;;;;;;4955623;28;20042;-75
2024/01/28 05:08:45;;;;;;;47.17;22.48;;;1.10;99.90;;;;;;4954992;28;20043;-75
2024/01/28 05:11:11;;;;;;;61.97;22.23;;;1.00;99.90;;;;;;4938182;29;20055;-75
2024/01/28 05:13:36;;;;;;;52.40;21.95;;;1.00;99.90;;;;;;4955393;28;20531;-75
2024/01/28 05:16:03;;;;;;;60.67;21.98;;;1.00;99.90;;;;;;4955463;28;20032;-74
2024/01/28 05:18:28;;;;;;;59.92;22.45;;;1.00;99.90;;;;;;4937477;29;20065;-74
2024/01/28 05:20:54;;;;;;;58.45;22.38;;;1.00;99.90;;;;;;4937983;29;20020;-74
2024/01/28 05:23:20;;;;;;;60.28;22.88;;;1.00;99.90;;;;;;4937967;29;20024;-73
2024/01/28 05:25:45;;;;;;;53.95;23.27;;;1.00;99.90;;;;;;4953596;28;20038;-75
2024/01/28 05:28:11;;;;;;;55.13;21.80;;;1.00;99.90;;;;;;4938124;29;20043;-77
2024/01/28 05:30:37;;;;;;;59.60;24.67;;;1.00;99.90;;;;;;4954443;28;20428;-77
2024/01/28 05:33:04;;;;;;;61.10;23.17;;;1.00;99.90;;;;;;4955138;28;20031;-77
2024/01/28 05:35:32;;;;;;;58.45;23.35;;;1.00;99.90;;;;;;4937927;29;20051;-77
2024/01/28 05:37:57;;;;;;;60.03;23.10;;;1.00;99.90;;;;;;4954475;29;20027;-76
2024/01/28 05:40:23;;;;;;;53.65;22.75;;;1.00;99.90;;;;;;4953465;28;20027;-77
2024/01/28 05:42:49;;;;;;;57.67;23.10;;;1.00;99.90;;;;;;4938234;29;20034;-77
2024/01/28 05:45:14;;;;;;;49.65;21.63;;;1.00;99.90;;;;;;4937811;29;20023;-77
2024/01/28 05:47:40;;;;;;;55.92;22.50;;;1.00;99.90;;;;;;4937776;29;20038;-77
2024/01/28 05:50:06;;;;;;;51.90;22.65;;;1.00;99.90;;;;;;4937556;29;20038;-77
2024/01/28 05:52:32;;;;;;;49.38;22.13;;;1.00;99.90;;;;;;4937109;28;20054;-77
2024/01/28 05:54:57;;;;;;;54.70;20.58;;;1.00;99.90;;;;;;4954566;28;20046;-77
2024/01/28 05:57:23;;;;;;;64.75;21.75;;;1.00;99.90;;;;;;4937656;29;20024;-77
2024/01/28 05:59:49;;;;;;;48.63;20.58;;;1.00;99.90;;;;;;4937418;29;20483;-76
2024/01/28 06:02:14;;;;;;;55.65;21.73;;;0.90;99.90;;;;;;4935174;29;20023;-78
2024/01/28 06:04:40;;;;;;;51.97;21.58;;;0.90;99.90;;;;;;4954597;28;20091;-76
2024/01/28 06:07:06;;;;;;;62.38;21.55;;;0.90;99.90;;;;;;4936663;28;21065;-76
2024/01/28 06:09:31;;;;;;;51.70;22.00;;;0.90;99.90;;;;;;4954605;28;20042;-76
2024/01/28 06:11:57;;;;;;;51.58;20.70;;;0.90;99.90;;;;;;4954682;29;20031;-76
2024/01/28 06:14:24;;;;;;;47.35;20.55;;;0.90;99.90;;;;;;4934432;29;20044;-77
2024/01/28 06:16:49;;;;;;;49.63;19.33;;;0.90;99.90;;;;;;4949814;29;20027;-77
2024/01/28 06:19:15;;;;;;;43.25;19.02;;;0.90;99.90;;;;;;4937362;29;20022;-76
2024/01/28 06:21:40;;;;;;;49.60;19.33;;;0.90;99.90;;;;;;4936851;29;20095;-76
2024/01/28 06:24:07;;;;;;;43.92;19.10;;;0.90;99.90;;;;;;4937286;29;20023;-76
2024/01/28 06:26:36;;;;;;;50.22;18.80;;;0.90;99.90;;;;;;4954404;28;20114;-76
2024/01/28 06:29:01;;;;;;;59.60;19.38;;;0.90;99.90;;;;;;4954192;29;20624;-76
2024/01/28 06:31:27;;;;;;;46.72;17.88;;;0.90;99.90;;;;;;4936234;29;20027;-77
2024/01/28 06:33:53;;;;;;;50.90;18.25;;;0.90;99.90;;;;;;4934458;29;20035;-76
2024/01/28 06:36:20;;;;;;;47.28;18.60;;;0.90;99.90;;;;;;4953979;28;20035;-76
2024/01/28 06:38:46;;;;;;;56.05;20.48;;;0.90;99.90;;;;;;4935209;29;20075;-76
2024/01/28 06:41:12;;;;;;;53.78;19.40;;;0.90;99.90;;;;;;4952067;28;20028;-77
2024/01/28 06:43:37;;;;;;;51.83;18.08;;;0.90;99.90;;;;;;4952644;29;20027;-77
2024/01/28 06:46:03;;;;;;;56.33;18.63;;;0.90;99.90;;;;;;4936511;29;20024;-76
2024/01/28 06:48:29;;;;;;;47.08;18.27;;;0.90;99.90;;;;;;4953016;28;20023;-76
2024/01/28 06:50:54;;;;;;;51.83;22.38;;;0.90;99.90;;;;;;4936944;29;20046;-77
2024/01/28 06:53:20;;;;;;;58.05;21.30;;;0.90;99.90;;;;;;4936633;29;20043;-77
2024/01/28 06:55:46;;;;;;;46.42;19.25;;;0.90;99.90;;;;;;4953749;28;20047;-78
2024/01/28 06:58:11;;;;;;;44.78;18.25;;;0.90;99.90;;;;;;4952971;29;20038;-76
2024/01/28 07:00:37;;;;;;;46.85;16.70;;;0.90;99.90;;;;;;4932636;29;20027;-76
2024/01/28 07:03:02;;;;;;;46.33;17.05;;;0.80;99.90;;;;;;4936840;29;20477;-76
2024/01/28 07:05:28;;;;;;;36.08;15.18;;;0.80;99.90;;;;;;4957572;28;20020;-77
2024/01/28 07:07:54;;;;;;;41.42;15.70;;;0.80;99.90;;;;;;4956625;28;20107;-75
2024/01/28 07:10:19;;;;;;;42.92;15.40;;;0.80;99.90;;;;;;4958348;29;20035;-76
2024/01/28 07:12:45;;;;;;;34.53;15.07;;;0.80;99.90;;;;;;4939190;29;20114;-76
2024/01/28 07:15:10;;;;;;;36.08;16.52;;;0.80;99.90;;;;;;4938211;28;20046;-76
2024/01/28 07:17:36;;;;;;;43.08;17.05;;;0.80;99.90;;;;;;4956330;28;20113;-77
2024/01/28 07:20:02;;;;;;;50.63;18.27;;;0.90;99.90;;;;;;4956904;28;20024;-76
2024/01/28 07:22:27;;;;;;;43.13;15.75;;;0.90;99.90;;;;;;4939035;28;20040;-76
2024/01/28 07:24:53;;;;;;;40.95;15.32;;;0.90;99.90;;;;;;4939883;29;20027;-76
2024/01/28 07:27:18;;;;;;;41.53;15.60;;;0.90;99.90;;;;;;4939588;29;20031;-77
2024/01/28 07:29:44;;;;;;;32.00;13.23;;;0.90;99.90;;;;;;4939094;28;20075;-76
2024/01/28 07:32:13;;;;;;;44.22;14.73;;;0.90;99.90;;;;;;4957149;28;20024;-76
2024/01/28 07:34:42;;;;;;;38.60;13.30;;;0.90;99.90;;;;;;4939903;28;20032;-76
2024/01/28 07:37:08;;;;;;;35.50;13.32;;;0.90;99.90;;;;;;4937731;29;20036;-77
2024/01/28 07:39:34;;;;;;;31.48;13.13;;;0.90;99.90;;;;;;4937306;29;20071;-77
2024/01/28 07:41:59;;;;;;;41.65;12.60;;;0.90;99.90;;;;;;4954992;28;20031;-76
2024/01/28 07:44:25;;;;;;;25.40;11.20;;;1.00;99.90;;;;;;4938959;29;20031;-77
2024/01/28 07:46:52;;;;;;;32.08;11.90;;;1.00;99.90;;;;;;4954211;28;20128;-76
2024/01/28 07:49:18;;;;;;;32.33;11.63;;;1.00;99.90;;;;;;4946564;28;20023;-76
2024/01/28 07:51:45;;;;;;;38.15;12.50;;;1.00;99.90;;;;;;4952853;28;20083;-77
2024/01/28 07:54:11;;;;;;;39.92;12.80;;;1.10;99.90;;;;;;4951638;28;20083;-77
2024/01/28 07:56:37;;;;;;;38.08;12.60;;;1.10;99.90;;;;;;4941446;28;20039;-77
2024/01/28 07:59:03;;;;;;;38.75;13.35;;;1.20;99.90;;;;;;4936948;29;20039;-77
2024/01/28 08:01:30;;;;;;;32.28;11.65;;;1.30;99.90;;;;;;4933684;29;20051;-77
2024/01/28 08:03:56;;;;;;;32.40;11.88;;;1.50;99.90;;;;;;4957074;28;20038;-77
2024/01/28 08:06:22;;;;;;;27.85;11.75;;;1.60;99.90;;;;;;4956056;28;20464;-77
2024/01/28 08:08:48;;;;;;;31.55;12.88;;;1.70;99.90;;;;;;4938706;29;20051;-77
2024/01/28 08:11:14;;;;;;;39.13;11.93;;;1.80;99.90;;;;;;4956498;29;20015;-76
2024/01/28 08:13:40;;;;;;;34.30;11.05;;;1.90;99.90;;;;;;4938816;29;20031;-77
2024/01/28 08:16:06;;;;;;;35.83;10.70;;;2.00;99.90;;;;;;4939365;28;20036;-77
2024/01/28 08:18:32;;;;;;;33.80;11.02;;;2.10;99.90;;;;;;4938906;29;20028;-77
2024/01/28 08:20:58;;;;;;;29.67;11.00;;;2.10;99.90;;;;;;4956322;28;20023;-77
2024/01/28 08:23:23;;;;;;;33.15;10.45;;;2.20;99.90;;;;;;4938789;29;20023;-77
2024/01/28 08:25:49;;;;;;;36.42;11.15;;;2.30;99.90;;;;;;4939047;29;20023;-77
2024/01/28 08:28:15;;;;;;;26.45;10.07;;;2.40;99.90;;;;;;4938945;29;20103;-76
2024/01/28 08:30:40;;;;;;;27.00;9.98;;;2.70;99.90;;;;;;4955029;28;20083;-77
2024/01/28 08:33:06;;;;;;;23.67;9.38;;;3.00;99.90;;;;;;4952505;28;20027;-77
2024/01/28 08:35:31;;;;;;;25.35;9.20;;;3.40;99.90;;;;;;4955576;28;20045;-77
2024/01/28 08:37:57;;;;;;;21.73;8.55;;;4.00;99.90;;;;;;4954825;28;20112;-76
2024/01/28 08:40:24;;;;;;;25.40;8.65;;;4.30;99.90;;;;;;4938036;29;20024;-77
2024/01/28 08:42:50;;;;;;;24.02;8.57;;;4.60;99.90;;;;;;4937926;29;20082;-77
2024/01/28 08:45:16;;;;;;;26.25;8.05;;;4.80;99.90;;;;;;4955489;28;20951;-77
2024/01/28 08:47:41;;;;;;;27.20;8.50;;;4.80;99.90;;;;;;4954494;28;20032;-77
2024/01/28 08:50:08;;;;;;;20.25;7.93;;;4.90;99.90;;;;;;4937462;29;20073;-77
2024/01/28 08:52:34;;;;;;;27.33;8.18;;;5.00;99.90;;;;;;4942711;29;20036;-77
2024/01/28 08:55:00;;;;;;;27.38;8.95;;;5.20;99.90;;;;;;4956004;28;20043;-77
2024/01/28 08:57:25;;;;;;;24.30;8.30;;;5.40;99.90;;;;;;4938262;29;20383;-77
2024/01/28 08:59:51;;;;;;;18.35;7.30;;;5.50;99.90;;;;;;4938723;29;20123;-77
2024/01/28 09:02:17;;;;;;;22.67;7.97;;;5.30;99.90;;;;;;4953351;29;20031;-78
2024/01/28 09:04:42;;;;;;;16.73;7.60;;;5.20;99.90;;;;;;4956721;28;20032;-76
2024/01/28 09:07:08;;;;;;;21.88;7.53;;;5.10;99.90;;;;;;4955595;28;20034;-77
2024/01/28 09:09:33;;;;;;;21.80;8.25;;;5.10;99.90;;;;;;4937414;28;20115;-76
2024/01/28 09:11:59;;;;;;;25.05;7.72;;;5.30;99.90;;;;;;4953111;28;20019;-77
2024/01/28 09:14:26;;;;;;;23.23;7.68;;;5.50;99.90;;;;;;4937274;29;20030;-77
2024/01/28 09:16:51;;;;;;;20.02;7.40;;;5.70;99.90;;;;;;4937050;28;20035;-77
2024/01/28 09:19:17;;;;;;;22.38;7.57;;;5.90;99.90;;;;;;4949417;29;20159;-78
2024/01/28 09:21:43;;;;;;;21.73;6.95;;;6.10;99.90;;;;;;4935768;29;20040;-77
2024/01/28 09:24:08;;;;;;;19.60;6.97;;;6.30;99.90;;;;;;4943319;28;20067;-77
2024/01/28 09:26:34;;;;;;;21.25;7.32;;;6.40;99.90;;;;;;4934390;29;20066;-78
2024/01/28 09:28:59;;;;;;;19.20;7.05;;;6.20;99.90;;;;;;4934806;29;20030;-77
2024/01/28 09:31:25;;;;;;;22.77;7.60;;;6.10;99.90;;;;;;4922139;29;20078;-78
2024/01/28 09:33:50;;;;;;;18.55;7.47;;;5.90;99.90;;;;;;4928950;29;20024;-78
2024/01/28 09:36:16;;;;;;;25.52;7.07;;;5.70;99.90;;;;;;4953093;28;20079;-79
2024/01/28 09:38:41;;;;;;;20.63;7.60;;;5.60;99.90;;;;;;4954546;28;20027;-77
2024/01/28 09:41:22;;;;;;;26.17;7.95;;;5.60;99.90;;;;;;4931176;28;20711;-79
2024/01/28 09:43:48;;;;;;;29.20;7.72;;;5.30;99.90;;;;;;4951226;28;20078;-77
2024/01/28 09:46:16;;;;;;;23.42;7.63;;;5.30;99.90;;;;;;4936625;29;20019;-78
2024/01/28 09:48:44;;;;;;;24.23;7.47;;;5.30;99.90;;;;;;4952181;29;20490;-78
2024/01/28 09:51:12;;;;;;;24.42;7.38;;;5.50;99.90;;;;;;4953383;28;20043;-77
2024/01/28 09:53:37;;;;;;;23.10;6.80;;;5.80;99.90;;;;;;4936495;29;20031;-78
2024/01/28 09:56:04;;;;;;;19.73;6.60;;;6.10;99.90;;;;;;4936760;28;20048;-77
2024/01/28 09:58:30;;;;;;;14.65;7.00;;;6.40;99.90;;;;;;4948996;28;20118;-76
2024/01/28 10:00:56;;;;;;;18.65;7.35;;;6.80;99.90;;;;;;4935138;29;20065;-76
2024/01/28 10:03:22;;;;;;;17.90;6.28;;;7.20;99.90;;;;;;4935130;29;20031;-77
2024/01/28 10:05:47;;;;;;;19.42;6.53;;;7.50;99.90;;;;;;4936912;29;20063;-77
2024/01/28 10:08:14;;;;;;;15.63;6.13;;;7.50;99.90;;;;;;4953108;28;20484;-76
2024/01/28 10:10:40;;;;;;;15.05;6.15;;;7.50;99.90;;;;;;4934675;29;20369;-78
2024/01/28 10:13:06;;;;;;;15.82;6.03;;;7.50;99.90;;;;;;4937683;29;20079;-76
2024/01/28 10:15:32;;;;;;;20.15;6.95;;;7.50;99.90;;;;;;4953553;28;20099;-75
2024/01/28 10:17:57;;;;;;;25.77;7.63;;;7.70;99.90;;;;;;4952569;28;20035;-77
2024/01/28 10:20:24;;;;;;;20.80;6.75;;;7.90;99.90;;;;;;4935992;29;20039;-77
2024/01/28 10:22:52;;;;;;;22.90;7.45;;;8.10;99.90;;;;;;4951401;29;20020;-77
2024/01/28 10:25:19;;;;;;;22.30;7.13;;;8.30;99.90;;;;;;4952956;28;20062;-77
2024/01/28 10:27:47;;;;;;;17.10;7.05;;;8.60;99.90;;;;;;4936602;29;20059;-79
2024/01/28 10:30:14;;;;;;;20.08;6.70;;;8.90;99.90;;;;;;4934805;29;20035;-75
2024/01/28 10:32:42;;;;;;;13.65;6.05;;;9.20;99.90;;;;;;4951005;29;20058;-77
2024/01/28 10:35:12;;;;;;;18.00;6.75;;;9.50;99.90;;;;;;4936106;28;20050;-77
2024/01/28 10:37:39;;;;;;;15.68;6.85;;;9.70;99.90;;;;;;4936814;29;20035;-77
2024/01/28 10:40:07;;;;;;;16.55;6.72;;;9.90;99.90;;;;;;4952901;28;20042;-76
2024/01/28 10:42:40;;;;;;;17.83;6.30;;;10.00;99.90;;;;;;4954104;28;20119;-77
2024/01/28 10:45:09;;;;;;;19.00;5.83;;;10.10;99.90;;;;;;4930436;29;20027;-77
2024/01/28 10:47:36;;;;;;;20.48;6.00;;;10.00;99.90;;;;;;4954164;28;20038;-76
2024/01/28 10:50:06;;;;;;;17.25;5.70;;;9.70;99.90;;;;;;4956416;28;20122;-76
2024/01/28 10:52:33;;;;;;;18.17;6.70;;;9.50;99.90;;;;;;4937663;29;20032;-77
2024/01/28 10:55:00;;;;;;;22.30;5.60;;;9.30;99.90;;;;;;4938218;29;20091;-75
2024/01/28 10:57:27;;;;;;;21.80;7.00;;;9.20;99.90;;;;;;4956477;28;20028;-76
2024/01/28 10:59:53;;;;;;;17.33;5.47;;;9.10;99.90;;;;;;4944691;28;20043;-77
2024/01/28 11:02:20;;;;;;;18.65;7.43;;;9.10;99.90;;;;;;4947558;28;20040;-77
2024/01/28 11:04:47;;;;;;;23.85;6.43;;;9.10;99.90;;;;;;4937333;29;20393;-77
2024/01/28 11:07:19;;;;;;;13.82;5.50;;;9.40;99.90;;;;;;4934671;29;20050;-77
2024/01/28 11:09:45;;;;;;;15.93;5.28;;;9.60;99.90;;;;;;4954237;28;20071;-77
2024/01/28 11:12:12;;;;;;;16.63;5.28;;;9.70;99.90;;;;;;4949751;28;20123;-76
2024/01/28 11:14:38;;;;;;;14.68;5.53;;;9.80;99.90;;;;;;4950736;29;20082;-78
2024/01/28 11:17:04;;;;;;;13.90;4.78;;;9.80;99.90;;;;;;4934976;28;20039;-78
2024/01/28 11:19:30;;;;;;;18.65;5.57;;;9.60;99.90;;;;;;4938007;29;20035;-77
2024/01/28 11:22:02;;;;;;;21.88;5.95;;;9.40;99.90;;;;;;4937179;28;20054;-77
2024/01/28 11:24:28;;;;;;;18.35;5.53;;;9.50;99.90;;;;;;4956603;28;20027;-77
2024/01/28 11:26:58;;;;;;;12.82;5.07;;;9.90;99.90;;;;;;4940478;29;20128;-76
2024/01/28 11:29:34;;;;;;;15.02;5.28;;;10.00;99.90;;;;;;4938096;28;20032;-75
2024/01/28 11:32:06;;;;;;;12.18;4.47;;;10.20;99.90;;;;;;4938414;29;20053;-77
2024/01/28 11:34:32;;;;;;;16.52;5.47;;;10.30;99.90;;;;;;4937685;28;20027;-76
2024/01/28 11:36:59;;;;;;;17.88;5.88;;;10.40;99.90;;;;;;4937641;29;20046;-75
2024/01/28 11:39:46;;;;;;;16.58;5.63;;;10.60;99.90;;;;;;4955022;28;20087;-75
2024/01/28 11:42:13;;;;;;;16.10;4.95;;;10.90;99.90;;;;;;4934707;29;20035;-75
2024/01/28 11:44:40;;;;;;;16.77;5.70;;;11.00;99.90;;;;;;4936919;29;20031;-79
2024/01/28 11:47:06;;;;;;;20.80;4.88;;;11.00;99.90;;;;;;4935130;29;20039;-79
2024/01/28 11:49:32;;;;;;;14.38;5.35;;;11.20;99.90;;;;;;4951540;28;20031;-77
2024/01/28 11:51:58;;;;;;;13.70;4.90;;;11.40;99.90;;;;;;4936056;29;20072;-79
2024/01/28 11:54:23;;;;;;;14.35;4.85;;;11.80;99.90;;;;;;4938028;28;20024;-78
2024/01/28 11:56:49;;;;;;;15.05;4.93;;;12.10;99.90;;;;;;4944631;28;20059;-77
2024/01/28 11:59:15;;;;;;;15.00;5.30;;;12.50;99.90;;;;;;4947224;29;20024;-77
2024/01/28 12:01:40;;;;;;;14.52;5.10;;;12.90;99.90;;;;;;4950714;28;20039;-77
2024/01/28 12:04:08;;;;;;;13.90;5.00;;;13.10;99.90;;;;;;4952310;29;20095;-78
2024/01/28 12:06:34;;;;;;;14.10;5.15;;;13.00;99.90;;;;;;4931493;29;20039;-78
2024/01/28 12:09:00;;;;;;;13.77;4.95;;;13.10;99.90;;;;;;4948558;28;20083;-76
2024/01/28 12:11:27;;;;;;;12.35;5.18;;;13.20;99.90;;;;;;4953254;28;20038;-77
2024/01/28 12:13:53;;;;;;;15.00;5.38;;;13.30;99.90;;;;;;4935238;29;20024;-75
2024/01/28 12:16:20;;;;;;;11.15;5.15;;;13.40;99.90;;;;;;4952605;28;20090;-76
2024/01/28 12:18:46;;;;;;;9.45;4.60;;;13.50;99.90;;;;;;4955034;28;20027;-75
2024/01/28 12:21:26;;;;;;;10.50;4.60;;;13.60;99.90;;;;;;4937698;29;20023;-77
2024/01/28 12:23:59;;;;;;;16.25;4.97;;;13.90;99.90;;;;;;4937537;29;20046;-76
2024/01/28 12:26:34;;;;;;;13.32;5.20;;;14.10;99.90;;;;;;4937250;29;20038;-73
2024/01/28 12:29:02;;;;;;;10.60;4.70;;;14.20;99.90;;;;;;4951120;28;20035;-74
2024/01/28 12:31:28;;;;;;;10.77;4.25;;;14.30;99.90;;;;;;4933884;29;20031;-75
2024/01/28 12:33:54;;;;;;;13.30;5.30;;;14.20;99.90;;;;;;4936132;28;20035;-73